sensor_id;sensor_type;location;lat;lon;timestamp;P1;durP1;ratioP1;P2;durP2;ratioP2
5026;SDS011;2532;52.480;13.354;2024-01-11T00:02:04;29.50;;;18.50;;
5026;SDS011;2532;52.480;13.354;2024-01-11T00:04:32;28.13;;;17.73;;
5026;SDS011;2532;52.480;13.354;2024-01-11T00:06:59;32.77;;;19.23;;
5026;SDS011;2532;52.480;13.354;2024-01-11T00:09:25;33.73;;;18.60;;
5026;SDS011;2532;52.480;13.354;2024-01-11T00:11:52;33.90;;;19.40;;
5026;SDS011;2532;52.480;13.354;2024-01-11T00:14:20;34.37;;;20.10;;
5026;SDS011;2532;52.480;13.354;2024-01-11T00:16:48;35.03;;;19.83;;
5026;SDS011;2532;52.480;13.354;2024-01-11T00:19:15;29.97;;;16.97;;
5026;SDS011;2532;52.480;13.354;2024-01-11T00:21:42;30.40;;;16.80;;
5026;SDS011;2532;52.480;13.354;2024-01-11T00:24:09;28.47;;;15.93;;
5026;SDS011;2532;52.480;13.354;2024-01-11T00:26:36;32.60;;;17.33;;
5026;SDS011;2532;52.480;13.354;2024-01-11T00:29:03;27.87;;;17.70;;
5026;SDS011;2532;52.480;13.354;2024-01-11T00:31:30;24.50;;;16.20;;
5026;SDS011;2532;52.480;13.354;2024-01-11T00:33:59;28.63;;;16.43;;
5026;SDS011;2532;52.480;13.354;2024-01-11T00:36:26;27.20;;;16.60;;
5026;SDS011;2532;52.480;13.354;2024-01-11T00:38:54;26.00;;;17.10;;
5026;SDS011;2532;52.480;13.354;2024-01-11T00:41:21;23.07;;;14.67;;
5026;SDS011;2532;52.480;13.354;2024-01-11T00:43:48;21.00;;;12.77;;
5026;SDS011;2532;52.480;13.354;2024-01-11T00:46:15;21.67;;;13.60;;
5026;SDS011;2532;52.480;13.354;2024-01-11T00:48:42;19.60;;;12.13;;
5026;SDS011;2532;52.480;13.354;2024-01-11T00:51:10;25.50;;;14.90;;
5026;SDS011;2532;52.480;13.354;2024-01-11T00:53:37;21.27;;;13.87;;
5026;SDS011;2532;52.480;13.354;2024-01-11T00:56:05;22.80;;;13.93;;
5026;SDS011;2532;52.480;13.354;2024-01-11T00:58:41;17.53;;;12.17;;
5026;SDS011;2532;52.480;13.354;2024-01-11T01:01:08;19.67;;;12.97;;
5026;SDS011;2532;52.480;13.354;2024-01-11T01:03:35;21.47;;;13.80;;
5026;SDS011;2532;52.480;13.354;2024-01-11T01:06:03;20.93;;;13.37;;
5026;SDS011;2532;52.480;13.354;2024-01-11T01:08:32;28.87;;;15.50;;
5026;SDS011;2532;52.480;13.354;2024-01-11T01:10:59;24.53;;;14.77;;
5026;SDS011;2532;52.480;13.354;2024-01-11T01:13:26;24.50;;;14.60;;
5026;SDS011;2532;52.480;13.354;2024-01-11T01:15:53;21.93;;;12.70;;
5026;SDS011;2532;52.480;13.354;2024-01-11T01:18:20;21.43;;;11.93;;
5026;SDS011;2532;52.480;13.354;2024-01-11T01:20:47;20.03;;;12.10;;
5026;SDS011;2532;52.480;13.354;2024-01-11T01:23:14;17.93;;;11.30;;
5026;SDS011;2532;52.480;13.354;2024-01-11T01:25:43;21.37;;;12.27;;
5026;SDS011;2532;52.480;13.354;2024-01-11T01:28:10;21.87;;;12.53;;
5026;SDS011;2532;52.480;13.354;2024-01-11T01:30:36;24.40;;;13.53;;
5026;SDS011;2532;52.480;13.354;2024-01-11T01:33:03;22.93;;;14.33;;
5026;SDS011;2532;52.480;13.354;2024-01-11T01:35:30;27.60;;;14.90;;
5026;SDS011;2532;52.480;13.354;2024-01-11T01:37:58;24.70;;;15.13;;
5026;SDS011;2532;52.480;13.354;2024-01-11T01:40:25;30.17;;;17.30;;
5026;SDS011;2532;52.480;13.354;2024-01-11T01:42:58;27.50;;;15.83;;
5026;SDS011;2532;52.480;13.354;2024-01-11T01:45:26;31.57;;;17.83;;
5026;SDS011;2532;52.480;13.354;2024-01-11T01:47:53;31.90;;;18.37;;
5026;SDS011;2532;52.480;13.354;2024-01-11T01:50:20;36.57;;;19.90;;
5026;SDS011;2532;52.480;13.354;2024-01-11T01:52:47;36.47;;;20.73;;
5026;SDS011;2532;52.480;13.354;2024-01-11T01:55:16;37.07;;;20.77;;
5026;SDS011;2532;52.480;13.354;2024-01-11T01:57:44;35.17;;;20.10;;
5026;SDS011;2532;52.480;13.354;2024-01-11T02:00:15;30.60;;;18.20;;
5026;SDS011;2532;52.480;13.354;2024-01-11T02:02:43;30.97;;;16.53;;
5026;SDS011;2532;52.480;13.354;2024-01-11T02:05:11;29.27;;;16.70;;
5026;SDS011;2532;52.480;13.354;2024-01-11T02:07:39;30.13;;;16.83;;
5026;SDS011;2532;52.480;13.354;2024-01-11T02:10:07;32.07;;;18.33;;
5026;SDS011;2532;52.480;13.354;2024-01-11T02:12:35;30.47;;;16.40;;
5026;SDS011;2532;52.480;13.354;2024-01-11T02:15:03;25.17;;;14.87;;
5026;SDS011;2532;52.480;13.354;2024-01-11T02:17:32;24.03;;;13.77;;
5026;SDS011;2532;52.480;13.354;2024-01-11T02:19:59;21.90;;;13.37;;
5026;SDS011;2532;52.480;13.354;2024-01-11T02:22:29;25.30;;;13.17;;
5026;SDS011;2532;52.480;13.354;2024-01-11T02:25:00;19.30;;;11.07;;
5026;SDS011;2532;52.480;13.354;2024-01-11T02:27:27;19.80;;;11.50;;
5026;SDS011;2532;52.480;13.354;2024-01-11T02:29:54;18.17;;;11.10;;
5026;SDS011;2532;52.480;13.354;2024-01-11T02:32:21;22.00;;;12.40;;
5026;SDS011;2532;52.480;13.354;2024-01-11T02:34:48;16.50;;;10.00;;
5026;SDS011;2532;52.480;13.354;2024-01-11T02:37:16;17.03;;;10.03;;
5026;SDS011;2532;52.480;13.354;2024-01-11T02:39:43;15.00;;;9.70;;
5026;SDS011;2532;52.480;13.354;2024-01-11T02:42:11;18.00;;;10.67;;
5026;SDS011;2532;52.480;13.354;2024-01-11T02:44:38;18.30;;;10.93;;
5026;SDS011;2532;52.480;13.354;2024-01-11T02:47:05;20.73;;;10.70;;
5026;SDS011;2532;52.480;13.354;2024-01-11T02:49:31;20.60;;;10.73;;
5026;SDS011;2532;52.480;13.354;2024-01-11T02:51:58;19.07;;;10.97;;
5026;SDS011;2532;52.480;13.354;2024-01-11T02:54:25;19.30;;;11.07;;
5026;SDS011;2532;52.480;13.354;2024-01-11T02:56:52;19.10;;;10.83;;
5026;SDS011;2532;52.480;13.354;2024-01-11T02:59:20;18.03;;;10.20;;
5026;SDS011;2532;52.480;13.354;2024-01-11T03:01:47;16.63;;;9.90;;
5026;SDS011;2532;52.480;13.354;2024-01-11T03:04:14;20.27;;;11.87;;
5026;SDS011;2532;52.480;13.354;2024-01-11T03:06:42;17.47;;;9.60;;
5026;SDS011;2532;52.480;13.354;2024-01-11T03:09:09;17.60;;;10.70;;
5026;SDS011;2532;52.480;13.354;2024-01-11T03:11:36;18.20;;;10.70;;
5026;SDS011;2532;52.480;13.354;2024-01-11T03:14:03;20.07;;;10.83;;
5026;SDS011;2532;52.480;13.354;2024-01-11T03:16:31;23.27;;;11.13;;
5026;SDS011;2532;52.480;13.354;2024-01-11T03:18:59;23.17;;;11.97;;
5026;SDS011;2532;52.480;13.354;2024-01-11T03:21:26;24.60;;;11.70;;
5026;SDS011;2532;52.480;13.354;2024-01-11T03:23:53;28.57;;;14.00;;
5026;SDS011;2532;52.480;13.354;2024-01-11T03:26:19;26.00;;;12.10;;
5026;SDS011;2532;52.480;13.354;2024-01-11T03:28:47;27.23;;;13.80;;
5026;SDS011;2532;52.480;13.354;2024-01-11T03:31:14;32.30;;;15.50;;
5026;SDS011;2532;52.480;13.354;2024-01-11T03:33:42;33.13;;;14.60;;
5026;SDS011;2532;52.480;13.354;2024-01-11T03:36:09;27.87;;;15.50;;
5026;SDS011;2532;52.480;13.354;2024-01-11T03:38:37;32.90;;;16.10;;
5026;SDS011;2532;52.480;13.354;2024-01-11T03:41:07;29.70;;;15.00;;
5026;SDS011;2532;52.480;13.354;2024-01-11T03:43:35;31.83;;;15.07;;
5026;SDS011;2532;52.480;13.354;2024-01-11T03:46:02;30.57;;;15.07;;
5026;SDS011;2532;52.480;13.354;2024-01-11T03:48:29;29.13;;;14.50;;
5026;SDS011;2532;52.480;13.354;2024-01-11T03:50:58;26.17;;;14.33;;
5026;SDS011;2532;52.480;13.354;2024-01-11T03:53:25;28.07;;;15.23;;
5026;SDS011;2532;52.480;13.354;2024-01-11T03:55:52;28.03;;;13.60;;
5026;SDS011;2532;52.480;13.354;2024-01-11T03:58:19;27.27;;;14.17;;
5026;SDS011;2532;52.480;13.354;2024-01-11T04:00:46;28.80;;;14.23;;
5026;SDS011;2532;52.480;13.354;2024-01-11T04:03:13;24.97;;;13.50;;
5026;SDS011;2532;52.480;13.354;2024-01-11T04:05:40;25.50;;;12.63;;
5026;SDS011;2532;52.480;13.354;2024-01-11T04:08:08;24.50;;;12.53;;
5026;SDS011;2532;52.480;13.354;2024-01-11T04:10:35;28.00;;;13.70;;
5026;SDS011;2532;52.480;13.354;2024-01-11T04:13:02;25.27;;;12.77;;
5026;SDS011;2532;52.480;13.354;2024-01-11T04:15:29;25.13;;;13.10;;
5026;SDS011;2532;52.480;13.354;2024-01-11T04:17:57;30.30;;;11.77;;
5026;SDS011;2532;52.480;13.354;2024-01-11T04:20:24;37.17;;;11.97;;
5026;SDS011;2532;52.480;13.354;2024-01-11T04:22:50;25.90;;;11.90;;
5026;SDS011;2532;52.480;13.354;2024-01-11T04:25:19;30.77;;;12.50;;
5026;SDS011;2532;52.480;13.354;2024-01-11T04:27:46;31.33;;;13.20;;
5026;SDS011;2532;52.480;13.354;2024-01-11T04:30:13;32.97;;;12.07;;
5026;SDS011;2532;52.480;13.354;2024-01-11T04:32:40;27.23;;;12.70;;
5026;SDS011;2532;52.480;13.354;2024-01-11T04:35:07;47.90;;;12.13;;
5026;SDS011;2532;52.480;13.354;2024-01-11T04:37:35;22.80;;;11.43;;
5026;SDS011;2532;52.480;13.354;2024-01-11T04:40:02;44.23;;;14.20;;
5026;SDS011;2532;52.480;13.354;2024-01-11T04:42:31;32.87;;;12.20;;
5026;SDS011;2532;52.480;13.354;2024-01-11T04:44:58;36.30;;;12.40;;
5026;SDS011;2532;52.480;13.354;2024-01-11T04:47:25;26.97;;;12.53;;
5026;SDS011;2532;52.480;13.354;2024-01-11T04:49:52;31.33;;;12.20;;
5026;SDS011;2532;52.480;13.354;2024-01-11T04:52:19;37.00;;;12.83;;
5026;SDS011;2532;52.480;13.354;2024-01-11T04:54:46;29.67;;;11.93;;
5026;SDS011;2532;52.480;13.354;2024-01-11T04:57:13;49.13;;;13.00;;
5026;SDS011;2532;52.480;13.354;2024-01-11T04:59:41;43.43;;;12.73;;
5026;SDS011;2532;52.480;13.354;2024-01-11T05:02:08;34.40;;;13.13;;
5026;SDS011;2532;52.480;13.354;2024-01-11T05:04:35;41.13;;;12.03;;
5026;SDS011;2532;52.480;13.354;2024-01-11T05:07:02;39.87;;;13.70;;
5026;SDS011;2532;52.480;13.354;2024-01-11T05:09:29;33.90;;;13.27;;
5026;SDS011;2532;52.480;13.354;2024-01-11T05:11:56;42.33;;;14.00;;
5026;SDS011;2532;52.480;13.354;2024-01-11T05:14:23;43.27;;;13.47;;
5026;SDS011;2532;52.480;13.354;2024-01-11T05:16:51;39.03;;;13.93;;
5026;SDS011;2532;52.480;13.354;2024-01-11T05:19:18;32.47;;;13.47;;
5026;SDS011;2532;52.480;13.354;2024-01-11T05:21:45;33.13;;;13.83;;
5026;SDS011;2532;52.480;13.354;2024-01-11T05:24:12;37.33;;;12.60;;
5026;SDS011;2532;52.480;13.354;2024-01-11T05:26:39;40.30;;;12.57;;
5026;SDS011;2532;52.480;13.354;2024-01-11T05:29:05;35.53;;;13.50;;
5026;SDS011;2532;52.480;13.354;2024-01-11T05:31:32;32.10;;;13.23;;
5026;SDS011;2532;52.480;13.354;2024-01-11T05:34:01;35.87;;;13.47;;
5026;SDS011;2532;52.480;13.354;2024-01-11T05:36:28;33.70;;;12.43;;
5026;SDS011;2532;52.480;13.354;2024-01-11T05:38:55;36.53;;;14.70;;
5026;SDS011;2532;52.480;13.354;2024-01-11T05:41:22;35.37;;;12.00;;
5026;SDS011;2532;52.480;13.354;2024-01-11T05:43:49;33.10;;;13.67;;
5026;SDS011;2532;52.480;13.354;2024-01-11T05:46:17;40.23;;;14.70;;
5026;SDS011;2532;52.480;13.354;2024-01-11T05:48:44;34.70;;;13.97;;
5026;SDS011;2532;52.480;13.354;2024-01-11T05:51:12;54.37;;;16.60;;
5026;SDS011;2532;52.480;13.354;2024-01-11T05:53:39;36.40;;;15.33;;
5026;SDS011;2532;52.480;13.354;2024-01-11T05:56:09;34.00;;;13.33;;
5026;SDS011;2532;52.480;13.354;2024-01-11T05:58:36;34.70;;;13.83;;
5026;SDS011;2532;52.480;13.354;2024-01-11T06:01:03;52.47;;;14.30;;
5026;SDS011;2532;52.480;13.354;2024-01-11T06:03:30;43.60;;;13.67;;
5026;SDS011;2532;52.480;13.354;2024-01-11T06:05:59;39.30;;;13.50;;
5026;SDS011;2532;52.480;13.354;2024-01-11T06:08:28;33.60;;;14.43;;
5026;SDS011;2532;52.480;13.354;2024-01-11T06:10:55;35.60;;;14.47;;
5026;SDS011;2532;52.480;13.354;2024-01-11T06:13:22;38.13;;;14.70;;
5026;SDS011;2532;52.480;13.354;2024-01-11T06:15:49;42.27;;;14.03;;
5026;SDS011;2532;52.480;13.354;2024-01-11T06:18:16;44.13;;;13.77;;
5026;SDS011;2532;52.480;13.354;2024-01-11T06:20:43;44.17;;;14.80;;
5026;SDS011;2532;52.480;13.354;2024-01-11T06:23:10;64.37;;;16.80;;
5026;SDS011;2532;52.480;13.354;2024-01-11T06:25:39;40.10;;;15.20;;
5026;SDS011;2532;52.480;13.354;2024-01-11T06:28:06;51.60;;;15.33;;
5026;SDS011;2532;52.480;13.354;2024-01-11T06:30:34;43.53;;;15.17;;
5026;SDS011;2532;52.480;13.354;2024-01-11T06:33:02;44.20;;;15.13;;
5026;SDS011;2532;52.480;13.354;2024-01-11T06:35:29;58.97;;;17.77;;
5026;SDS011;2532;52.480;13.354;2024-01-11T06:37:56;47.70;;;15.90;;
5026;SDS011;2532;52.480;13.354;2024-01-11T06:40:23;53.60;;;16.50;;
5026;SDS011;2532;52.480;13.354;2024-01-11T06:42:52;42.80;;;16.10;;
5026;SDS011;2532;52.480;13.354;2024-01-11T06:45:19;51.47;;;16.50;;
5026;SDS011;2532;52.480;13.354;2024-01-11T06:47:46;53.30;;;17.57;;
5026;SDS011;2532;52.480;13.354;2024-01-11T06:50:14;56.90;;;18.73;;
5026;SDS011;2532;52.480;13.354;2024-01-11T06:52:41;64.30;;;17.40;;
5026;SDS011;2532;52.480;13.354;2024-01-11T06:55:08;43.43;;;16.90;;
5026;SDS011;2532;52.480;13.354;2024-01-11T06:57:36;51.10;;;18.13;;
5026;SDS011;2532;52.480;13.354;2024-01-11T07:00:04;52.00;;;18.10;;
5026;SDS011;2532;52.480;13.354;2024-01-11T07:02:33;48.23;;;17.40;;
5026;SDS011;2532;52.480;13.354;2024-01-11T07:05:00;51.40;;;18.10;;
5026;SDS011;2532;52.480;13.354;2024-01-11T07:07:27;56.70;;;17.70;;
5026;SDS011;2532;52.480;13.354;2024-01-11T07:09:54;48.87;;;18.67;;
5026;SDS011;2532;52.480;13.354;2024-01-11T07:12:21;47.87;;;15.10;;
5026;SDS011;2532;52.480;13.354;2024-01-11T07:14:48;50.97;;;16.10;;
5026;SDS011;2532;52.480;13.354;2024-01-11T07:17:16;51.93;;;17.13;;
5026;SDS011;2532;52.480;13.354;2024-01-11T07:19:43;39.70;;;16.30;;
5026;SDS011;2532;52.480;13.354;2024-01-11T07:22:10;50.43;;;15.27;;
5026;SDS011;2532;52.480;13.354;2024-01-11T07:24:37;44.20;;;15.70;;
5026;SDS011;2532;52.480;13.354;2024-01-11T07:27:04;50.13;;;17.60;;
5026;SDS011;2532;52.480;13.354;2024-01-11T07:29:31;44.17;;;17.10;;
5026;SDS011;2532;52.480;13.354;2024-01-11T07:31:59;48.30;;;17.00;;
5026;SDS011;2532;52.480;13.354;2024-01-11T07:34:27;46.03;;;16.13;;
5026;SDS011;2532;52.480;13.354;2024-01-11T07:36:54;52.17;;;19.37;;
5026;SDS011;2532;52.480;13.354;2024-01-11T07:39:21;52.63;;;17.93;;
5026;SDS011;2532;52.480;13.354;2024-01-11T07:41:49;50.30;;;18.00;;
5026;SDS011;2532;52.480;13.354;2024-01-11T07:44:17;56.97;;;18.70;;
5026;SDS011;2532;52.480;13.354;2024-01-11T07:46:45;50.00;;;17.77;;
5026;SDS011;2532;52.480;13.354;2024-01-11T07:49:12;47.67;;;17.40;;
5026;SDS011;2532;52.480;13.354;2024-01-11T07:51:40;50.50;;;18.90;;
5026;SDS011;2532;52.480;13.354;2024-01-11T07:54:07;55.53;;;20.13;;
5026;SDS011;2532;52.480;13.354;2024-01-11T07:56:34;54.70;;;17.07;;
5026;SDS011;2532;52.480;13.354;2024-01-11T07:59:01;44.67;;;18.27;;
5026;SDS011;2532;52.480;13.354;2024-01-11T08:01:28;54.60;;;18.60;;
5026;SDS011;2532;52.480;13.354;2024-01-11T08:03:55;46.53;;;18.27;;
5026;SDS011;2532;52.480;13.354;2024-01-11T08:06:22;55.57;;;20.23;;
5026;SDS011;2532;52.480;13.354;2024-01-11T08:08:50;46.53;;;18.00;;
5026;SDS011;2532;52.480;13.354;2024-01-11T08:11:17;49.93;;;18.90;;
5026;SDS011;2532;52.480;13.354;2024-01-11T08:13:45;48.90;;;17.83;;
5026;SDS011;2532;52.480;13.354;2024-01-11T08:16:15;47.90;;;18.67;;
5026;SDS011;2532;52.480;13.354;2024-01-11T08:18:43;52.60;;;18.47;;
5026;SDS011;2532;52.480;13.354;2024-01-11T08:21:10;46.13;;;17.70;;
5026;SDS011;2532;52.480;13.354;2024-01-11T08:23:41;56.13;;;17.97;;
5026;SDS011;2532;52.480;13.354;2024-01-11T08:26:12;42.40;;;17.43;;
5026;SDS011;2532;52.480;13.354;2024-01-11T08:28:40;50.10;;;18.27;;
5026;SDS011;2532;52.480;13.354;2024-01-11T08:31:07;55.87;;;19.23;;
5026;SDS011;2532;52.480;13.354;2024-01-11T08:33:34;59.23;;;19.40;;
5026;SDS011;2532;52.480;13.354;2024-01-11T08:36:02;50.40;;;20.97;;
5026;SDS011;2532;52.480;13.354;2024-01-11T08:38:30;49.33;;;18.73;;
5026;SDS011;2532;52.480;13.354;2024-01-11T08:40:57;46.83;;;16.83;;
5026;SDS011;2532;52.480;13.354;2024-01-11T08:43:26;49.70;;;18.73;;
5026;SDS011;2532;52.480;13.354;2024-01-11T08:45:54;54.93;;;17.70;;
5026;SDS011;2532;52.480;13.354;2024-01-11T08:48:21;55.07;;;19.47;;
5026;SDS011;2532;52.480;13.354;2024-01-11T08:50:48;59.73;;;19.00;;
5026;SDS011;2532;52.480;13.354;2024-01-11T08:53:15;53.07;;;18.20;;
5026;SDS011;2532;52.480;13.354;2024-01-11T08:55:42;49.87;;;19.80;;
5026;SDS011;2532;52.480;13.354;2024-01-11T08:58:09;55.77;;;18.90;;
5026;SDS011;2532;52.480;13.354;2024-01-11T09:00:41;46.30;;;17.70;;
5026;SDS011;2532;52.480;13.354;2024-01-11T09:03:09;48.27;;;18.80;;
5026;SDS011;2532;52.480;13.354;2024-01-11T09:05:36;45.17;;;18.23;;
5026;SDS011;2532;52.480;13.354;2024-01-11T09:08:05;49.67;;;19.50;;
5026;SDS011;2532;52.480;13.354;2024-01-11T09:10:32;58.27;;;18.53;;
5026;SDS011;2532;52.480;13.354;2024-01-11T09:12:59;49.40;;;20.10;;
5026;SDS011;2532;52.480;13.354;2024-01-11T09:15:27;43.93;;;20.00;;
5026;SDS011;2532;52.480;13.354;2024-01-11T09:17:56;60.90;;;19.90;;
5026;SDS011;2532;52.480;13.354;2024-01-11T09:20:23;52.43;;;18.87;;
5026;SDS011;2532;52.480;13.354;2024-01-11T09:22:50;60.90;;;18.73;;
5026;SDS011;2532;52.480;13.354;2024-01-11T09:25:17;54.80;;;20.20;;
5026;SDS011;2532;52.480;13.354;2024-01-11T09:27:44;52.83;;;18.67;;
5026;SDS011;2532;52.480;13.354;2024-01-11T09:30:11;49.47;;;19.23;;
5026;SDS011;2532;52.480;13.354;2024-01-11T09:32:39;47.50;;;19.23;;
5026;SDS011;2532;52.480;13.354;2024-01-11T09:35:07;46.87;;;19.77;;
5026;SDS011;2532;52.480;13.354;2024-01-11T09:37:38;50.07;;;18.90;;
5026;SDS011;2532;52.480;13.354;2024-01-11T09:40:05;44.73;;;18.63;;
5026;SDS011;2532;52.480;13.354;2024-01-11T09:42:35;45.97;;;19.13;;
5026;SDS011;2532;52.480;13.354;2024-01-11T09:45:04;45.20;;;18.93;;
5026;SDS011;2532;52.480;13.354;2024-01-11T09:47:37;47.00;;;19.37;;
5026;SDS011;2532;52.480;13.354;2024-01-11T09:50:06;49.90;;;19.83;;
5026;SDS011;2532;52.480;13.354;2024-01-11T09:52:36;54.87;;;22.13;;
5026;SDS011;2532;52.480;13.354;2024-01-11T09:55:04;49.10;;;21.10;;
5026;SDS011;2532;52.480;13.354;2024-01-11T09:57:32;55.17;;;22.47;;
5026;SDS011;2532;52.480;13.354;2024-01-11T10:00:03;56.00;;;20.83;;
5026;SDS011;2532;52.480;13.354;2024-01-11T10:02:32;60.67;;;20.30;;
5026;SDS011;2532;52.480;13.354;2024-01-11T10:04:59;50.73;;;19.93;;
5026;SDS011;2532;52.480;13.354;2024-01-11T10:07:28;49.57;;;19.33;;
5026;SDS011;2532;52.480;13.354;2024-01-11T10:09:58;47.87;;;20.23;;
5026;SDS011;2532;52.480;13.354;2024-01-11T10:12:26;46.03;;;19.37;;
5026;SDS011;2532;52.480;13.354;2024-01-11T10:14:54;51.00;;;20.27;;
5026;SDS011;2532;52.480;13.354;2024-01-11T10:17:21;48.53;;;20.40;;
5026;SDS011;2532;52.480;13.354;2024-01-11T10:19:50;49.50;;;21.50;;
5026;SDS011;2532;52.480;13.354;2024-01-11T10:22:18;50.97;;;19.63;;
5026;SDS011;2532;52.480;13.354;2024-01-11T10:24:47;52.27;;;19.90;;
5026;SDS011;2532;52.480;13.354;2024-01-11T10:27:14;53.37;;;19.90;;
5026;SDS011;2532;52.480;13.354;2024-01-11T10:29:41;55.50;;;20.30;;
5026;SDS011;2532;52.480;13.354;2024-01-11T10:32:09;45.90;;;19.63;;
5026;SDS011;2532;52.480;13.354;2024-01-11T10:34:36;53.07;;;20.60;;
5026;SDS011;2532;52.480;13.354;2024-01-11T10:37:06;52.03;;;20.77;;
5026;SDS011;2532;52.480;13.354;2024-01-11T10:39:35;49.30;;;20.70;;
5026;SDS011;2532;52.480;13.354;2024-01-11T10:42:06;50.63;;;20.47;;
5026;SDS011;2532;52.480;13.354;2024-01-11T10:44:35;52.73;;;21.47;;
5026;SDS011;2532;52.480;13.354;2024-01-11T10:47:05;54.87;;;19.47;;
5026;SDS011;2532;52.480;13.354;2024-01-11T10:49:36;55.10;;;21.33;;
5026;SDS011;2532;52.480;13.354;2024-01-11T10:52:07;55.87;;;19.90;;
5026;SDS011;2532;52.480;13.354;2024-01-11T10:54:35;46.60;;;20.30;;
5026;SDS011;2532;52.480;13.354;2024-01-11T10:57:06;51.20;;;20.37;;
5026;SDS011;2532;52.480;13.354;2024-01-11T10:59:40;54.47;;;20.40;;
5026;SDS011;2532;52.480;13.354;2024-01-11T11:02:09;50.17;;;21.93;;
5026;SDS011;2532;52.480;13.354;2024-01-11T11:04:38;54.27;;;20.30;;
5026;SDS011;2532;52.480;13.354;2024-01-11T11:09:58;51.07;;;20.00;;
5026;SDS011;2532;52.480;13.354;2024-01-11T11:12:31;64.33;;;22.60;;
5026;SDS011;2532;52.480;13.354;2024-01-11T11:15:01;55.30;;;22.63;;
5026;SDS011;2532;52.480;13.354;2024-01-11T11:17:31;60.23;;;24.87;;
5026;SDS011;2532;52.480;13.354;2024-01-11T11:20:01;59.60;;;21.73;;
5026;SDS011;2532;52.480;13.354;2024-01-11T11:22:33;56.57;;;22.37;;
5026;SDS011;2532;52.480;13.354;2024-01-11T11:25:04;56.57;;;21.67;;
5026;SDS011;2532;52.480;13.354;2024-01-11T11:27:38;62.40;;;23.40;;
5026;SDS011;2532;52.480;13.354;2024-01-11T11:30:06;57.57;;;22.50;;
5026;SDS011;2532;52.480;13.354;2024-01-11T11:32:35;47.60;;;19.13;;
5026;SDS011;2532;52.480;13.354;2024-01-11T11:35:03;65.10;;;26.07;;
5026;SDS011;2532;52.480;13.354;2024-01-11T11:37:32;54.67;;;21.77;;
5026;SDS011;2532;52.480;13.354;2024-01-11T11:39:59;51.43;;;21.23;;
5026;SDS011;2532;52.480;13.354;2024-01-11T11:42:26;51.70;;;20.03;;
5026;SDS011;2532;52.480;13.354;2024-01-11T11:44:57;42.70;;;18.57;;
5026;SDS011;2532;52.480;13.354;2024-01-11T11:47:24;47.90;;;21.37;;
5026;SDS011;2532;52.480;13.354;2024-01-11T11:50:03;56.73;;;22.70;;
5026;SDS011;2532;52.480;13.354;2024-01-11T11:52:32;54.47;;;24.17;;
5026;SDS011;2532;52.480;13.354;2024-01-11T11:55:00;58.27;;;21.63;;
5026;SDS011;2532;52.480;13.354;2024-01-11T11:57:28;66.47;;;23.50;;
5026;SDS011;2532;52.480;13.354;2024-01-11T11:59:55;56.40;;;21.50;;
5026;SDS011;2532;52.480;13.354;2024-01-11T12:02:24;58.43;;;23.43;;
5026;SDS011;2532;52.480;13.354;2024-01-11T12:04:52;61.10;;;23.20;;
5026;SDS011;2532;52.480;13.354;2024-01-11T12:07:21;46.33;;;17.53;;
5026;SDS011;2532;52.480;13.354;2024-01-11T12:09:48;56.27;;;24.33;;
5026;SDS011;2532;52.480;13.354;2024-01-11T12:12:15;65.43;;;25.17;;
5026;SDS011;2532;52.480;13.354;2024-01-11T12:14:43;55.53;;;19.27;;
5026;SDS011;2532;52.480;13.354;2024-01-11T12:17:12;59.30;;;22.60;;
5026;SDS011;2532;52.480;13.354;2024-01-11T12:19:39;52.30;;;22.57;;
5026;SDS011;2532;52.480;13.354;2024-01-11T12:22:07;59.83;;;21.37;;
5026;SDS011;2532;52.480;13.354;2024-01-11T12:24:34;52.53;;;22.30;;
5026;SDS011;2532;52.480;13.354;2024-01-11T12:27:01;53.23;;;22.33;;
5026;SDS011;2532;52.480;13.354;2024-01-11T12:29:31;62.63;;;23.27;;
5026;SDS011;2532;52.480;13.354;2024-01-11T12:31:58;55.10;;;23.33;;
5026;SDS011;2532;52.480;13.354;2024-01-11T12:34:27;50.97;;;22.63;;
5026;SDS011;2532;52.480;13.354;2024-01-11T12:36:56;53.63;;;22.43;;
5026;SDS011;2532;52.480;13.354;2024-01-11T12:39:25;45.67;;;22.27;;
5026;SDS011;2532;52.480;13.354;2024-01-11T12:41:53;43.93;;;18.17;;
5026;SDS011;2532;52.480;13.354;2024-01-11T12:44:22;51.23;;;21.23;;
5026;SDS011;2532;52.480;13.354;2024-01-11T12:46:50;50.97;;;20.67;;
5026;SDS011;2532;52.480;13.354;2024-01-11T12:49:18;38.53;;;16.57;;
5026;SDS011;2532;52.480;13.354;2024-01-11T12:51:46;50.27;;;21.07;;
5026;SDS011;2532;52.480;13.354;2024-01-11T12:54:15;54.30;;;22.23;;
5026;SDS011;2532;52.480;13.354;2024-01-11T12:56:44;49.40;;;22.53;;
5026;SDS011;2532;52.480;13.354;2024-01-11T12:59:11;43.40;;;18.80;;
5026;SDS011;2532;52.480;13.354;2024-01-11T13:01:41;39.30;;;17.57;;
5026;SDS011;2532;52.480;13.354;2024-01-11T13:04:10;47.50;;;22.43;;
5026;SDS011;2532;52.480;13.354;2024-01-11T13:06:38;47.40;;;17.53;;
5026;SDS011;2532;52.480;13.354;2024-01-11T13:09:07;49.33;;;22.70;;
5026;SDS011;2532;52.480;13.354;2024-01-11T13:11:35;52.10;;;23.70;;
5026;SDS011;2532;52.480;13.354;2024-01-11T13:14:03;45.13;;;16.80;;
5026;SDS011;2532;52.480;13.354;2024-01-11T13:16:33;39.67;;;16.47;;
5026;SDS011;2532;52.480;13.354;2024-01-11T13:19:00;43.33;;;20.83;;
5026;SDS011;2532;52.480;13.354;2024-01-11T13:21:27;49.87;;;22.20;;
5026;SDS011;2532;52.480;13.354;2024-01-11T13:23:54;48.27;;;21.60;;
5026;SDS011;2532;52.480;13.354;2024-01-11T13:26:23;42.67;;;17.00;;
5026;SDS011;2532;52.480;13.354;2024-01-11T13:28:50;43.03;;;19.70;;
5026;SDS011;2532;52.480;13.354;2024-01-11T13:31:18;43.17;;;19.87;;
5026;SDS011;2532;52.480;13.354;2024-01-11T13:33:46;39.17;;;18.40;;
5026;SDS011;2532;52.480;13.354;2024-01-11T13:36:14;36.53;;;16.03;;
5026;SDS011;2532;52.480;13.354;2024-01-11T13:38:41;44.53;;;19.37;;
5026;SDS011;2532;52.480;13.354;2024-01-11T13:41:08;40.63;;;19.40;;
5026;SDS011;2532;52.480;13.354;2024-01-11T13:43:37;39.33;;;18.47;;
5026;SDS011;2532;52.480;13.354;2024-01-11T13:46:04;31.83;;;15.13;;
5026;SDS011;2532;52.480;13.354;2024-01-11T13:48:31;35.30;;;13.87;;
5026;SDS011;2532;52.480;13.354;2024-01-11T13:50:58;35.90;;;14.53;;
5026;SDS011;2532;52.480;13.354;2024-01-11T13:53:27;34.10;;;16.47;;
5026;SDS011;2532;52.480;13.354;2024-01-11T13:55:54;34.67;;;15.50;;
5026;SDS011;2532;52.480;13.354;2024-01-11T13:58:21;31.33;;;13.57;;
5026;SDS011;2532;52.480;13.354;2024-01-11T14:00:52;27.87;;;11.73;;
5026;SDS011;2532;52.480;13.354;2024-01-11T14:03:20;33.57;;;16.07;;
5026;SDS011;2532;52.480;13.354;2024-01-11T14:05:47;32.80;;;16.33;;
5026;SDS011;2532;52.480;13.354;2024-01-11T14:08:14;27.87;;;11.73;;
5026;SDS011;2532;52.480;13.354;2024-01-11T14:10:41;37.13;;;17.40;;
5026;SDS011;2532;52.480;13.354;2024-01-11T14:13:09;26.50;;;14.53;;
5026;SDS011;2532;52.480;13.354;2024-01-11T14:15:36;29.13;;;14.77;;
5026;SDS011;2532;52.480;13.354;2024-01-11T14:18:05;32.10;;;14.73;;
5026;SDS011;2532;52.480;13.354;2024-01-11T14:20:33;34.50;;;16.13;;
5026;SDS011;2532;52.480;13.354;2024-01-11T14:23:00;34.90;;;14.73;;
5026;SDS011;2532;52.480;13.354;2024-01-11T14:25:27;35.87;;;16.13;;
5026;SDS011;2532;52.480;13.354;2024-01-11T14:27:55;33.47;;;16.50;;
5026;SDS011;2532;52.480;13.354;2024-01-11T14:30:22;37.77;;;15.63;;
5026;SDS011;2532;52.480;13.354;2024-01-11T14:32:49;38.17;;;19.53;;
5026;SDS011;2532;52.480;13.354;2024-01-11T14:35:18;36.00;;;17.50;;
5026;SDS011;2532;52.480;13.354;2024-01-11T14:37:45;41.47;;;20.20;;
5026;SDS011;2532;52.480;13.354;2024-01-11T14:40:12;44.30;;;19.30;;
5026;SDS011;2532;52.480;13.354;2024-01-11T14:42:39;38.33;;;15.20;;